sensor_id;sensor_type;location;lat;lon;timestamp;P1;durP1;ratioP1;P2;durP2;ratioP2
62693;SDS011;48759;52.544;13.418;2022-07-09T00:02:24;8.33;;;4.53;;
62693;SDS011;48759;52.544;13.418;2022-07-09T00:04:52;6.40;;;3.60;;
62693;SDS011;48759;52.544;13.418;2022-07-09T00:07:27;6.80;;;4.30;;
62693;SDS011;48759;52.544;13.418;2022-07-09T00:09:54;6.20;;;3.40;;
62693;SDS011;48759;52.544;13.418;2022-07-09T00:12:21;7.60;;;3.67;;
62693;SDS011;48759;52.544;13.418;2022-07-09T00:14:48;7.37;;;3.80;;
62693;SDS011;48759;52.544;13.418;2022-07-09T00:17:15;4.30;;;3.90;;
62693;SDS011;48759;52.544;13.418;2022-07-09T00:19:42;6.67;;;4.40;;
62693;SDS011;48759;52.544;13.418;2022-07-09T00:22:09;12.87;;;4.20;;
62693;SDS011;48759;52.544;13.418;2022-07-09T00:24:35;6.67;;;3.87;;
62693;SDS011;48759;52.544;13.418;2022-07-09T00:27:02;6.93;;;3.70;;
62693;SDS011;48759;52.544;13.418;2022-07-09T00:29:30;4.80;;;3.50;;
62693;SDS011;48759;52.544;13.418;2022-07-09T00:31:56;9.10;;;4.03;;
62693;SDS011;48759;52.544;13.418;2022-07-09T00:34:23;4.93;;;3.80;;
62693;SDS011;48759;52.544;13.418;2022-07-09T00:36:49;7.13;;;3.90;;
62693;SDS011;48759;52.544;13.418;2022-07-09T00:39:16;8.30;;;4.17;;
62693;SDS011;48759;52.544;13.418;2022-07-09T00:41:42;9.90;;;4.30;;
62693;SDS011;48759;52.544;13.418;2022-07-09T00:44:09;12.10;;;3.93;;
62693;SDS011;48759;52.544;13.418;2022-07-09T00:46:37;5.87;;;3.70;;
62693;SDS011;48759;52.544;13.418;2022-07-09T00:49:03;12.90;;;4.30;;
62693;SDS011;48759;52.544;13.418;2022-07-09T00:51:31;12.50;;;4.27;;
62693;SDS011;48759;52.544;13.418;2022-07-09T00:53:58;11.87;;;4.07;;
62693;SDS011;48759;52.544;13.418;2022-07-09T00:56:26;8.00;;;4.13;;
62693;SDS011;48759;52.544;13.418;2022-07-09T00:58:54;9.13;;;3.77;;
62693;SDS011;48759;52.544;13.418;2022-07-09T01:01:21;10.50;;;4.47;;
62693;SDS011;48759;52.544;13.418;2022-07-09T01:03:50;11.13;;;4.67;;
62693;SDS011;48759;52.544;13.418;2022-07-09T01:06:16;9.93;;;4.27;;
62693;SDS011;48759;52.544;13.418;2022-07-09T01:08:42;10.53;;;4.00;;
62693;SDS011;48759;52.544;13.418;2022-07-09T01:11:09;13.63;;;4.53;;
62693;SDS011;48759;52.544;13.418;2022-07-09T01:13:36;10.90;;;4.33;;
62693;SDS011;48759;52.544;13.418;2022-07-09T01:16:03;15.83;;;5.40;;
62693;SDS011;48759;52.544;13.418;2022-07-09T01:18:29;7.43;;;3.90;;
62693;SDS011;48759;52.544;13.418;2022-07-09T01:20:57;7.73;;;4.40;;
62693;SDS011;48759;52.544;13.418;2022-07-09T01:23:24;7.97;;;4.50;;
62693;SDS011;48759;52.544;13.418;2022-07-09T01:25:51;19.63;;;5.97;;
62693;SDS011;48759;52.544;13.418;2022-07-09T01:28:20;9.77;;;4.53;;
62693;SDS011;48759;52.544;13.418;2022-07-09T01:30:47;7.87;;;4.50;;
62693;SDS011;48759;52.544;13.418;2022-07-09T01:33:14;13.53;;;4.60;;
62693;SDS011;48759;52.544;13.418;2022-07-09T01:35:40;11.90;;;4.27;;
62693;SDS011;48759;52.544;13.418;2022-07-09T01:38:08;13.07;;;4.37;;
62693;SDS011;48759;52.544;13.418;2022-07-09T01:40:35;18.57;;;4.57;;
62693;SDS011;48759;52.544;13.418;2022-07-09T01:43:02;14.97;;;4.30;;
62693;SDS011;48759;52.544;13.418;2022-07-09T01:45:28;10.97;;;5.07;;
62693;SDS011;48759;52.544;13.418;2022-07-09T01:47:55;11.77;;;5.27;;
62693;SDS011;48759;52.544;13.418;2022-07-09T01:50:22;10.30;;;5.20;;
62693;SDS011;48759;52.544;13.418;2022-07-09T01:52:48;13.10;;;4.90;;
62693;SDS011;48759;52.544;13.418;2022-07-09T01:55:17;13.53;;;5.77;;
62693;SDS011;48759;52.544;13.418;2022-07-09T01:57:44;10.07;;;4.77;;
62693;SDS011;48759;52.544;13.418;2022-07-09T02:00:11;21.43;;;5.30;;
62693;SDS011;48759;52.544;13.418;2022-07-09T02:02:38;8.73;;;4.73;;
62693;SDS011;48759;52.544;13.418;2022-07-09T02:05:05;10.53;;;5.10;;
62693;SDS011;48759;52.544;13.418;2022-07-09T02:07:32;14.63;;;5.67;;
62693;SDS011;48759;52.544;13.418;2022-07-09T02:09:58;9.37;;;5.70;;
62693;SDS011;48759;52.544;13.418;2022-07-09T02:12:26;15.17;;;6.27;;
62693;SDS011;48759;52.544;13.418;2022-07-09T02:14:53;12.57;;;6.10;;
62693;SDS011;48759;52.544;13.418;2022-07-09T02:17:19;12.63;;;6.30;;
62693;SDS011;48759;52.544;13.418;2022-07-09T02:19:46;8.83;;;5.63;;
62693;SDS011;48759;52.544;13.418;2022-07-09T02:22:12;9.63;;;5.70;;
62693;SDS011;48759;52.544;13.418;2022-07-09T02:24:39;10.67;;;6.40;;
62693;SDS011;48759;52.544;13.418;2022-07-09T02:27:06;9.27;;;6.10;;
62693;SDS011;48759;52.544;13.418;2022-07-09T02:29:33;11.07;;;5.93;;
62693;SDS011;48759;52.544;13.418;2022-07-09T02:32:01;15.70;;;6.90;;
62693;SDS011;48759;52.544;13.418;2022-07-09T02:34:27;16.20;;;5.83;;
62693;SDS011;48759;52.544;13.418;2022-07-09T02:36:54;13.37;;;6.60;;
62693;SDS011;48759;52.544;13.418;2022-07-09T02:39:20;11.63;;;6.20;;
62693;SDS011;48759;52.544;13.418;2022-07-09T02:41:47;11.03;;;6.30;;
62693;SDS011;48759;52.544;13.418;2022-07-09T02:44:14;13.63;;;5.57;;
62693;SDS011;48759;52.544;13.418;2022-07-09T02:46:42;11.10;;;5.40;;
62693;SDS011;48759;52.544;13.418;2022-07-09T02:49:08;12.37;;;6.53;;
62693;SDS011;48759;52.544;13.418;2022-07-09T02:51:35;10.83;;;6.00;;
62693;SDS011;48759;52.544;13.418;2022-07-09T02:54:02;15.90;;;5.90;;
62693;SDS011;48759;52.544;13.418;2022-07-09T02:56:28;15.17;;;5.93;;
62693;SDS011;48759;52.544;13.418;2022-07-09T02:58:55;13.77;;;5.93;;
62693;SDS011;48759;52.544;13.418;2022-07-09T03:01:21;10.50;;;5.60;;
62693;SDS011;48759;52.544;13.418;2022-07-09T03:03:49;10.43;;;6.10;;
62693;SDS011;48759;52.544;13.418;2022-07-09T03:06:16;11.93;;;4.87;;
62693;SDS011;48759;52.544;13.418;2022-07-09T03:08:43;7.40;;;5.20;;
62693;SDS011;48759;52.544;13.418;2022-07-09T03:11:09;9.53;;;6.20;;
62693;SDS011;48759;52.544;13.418;2022-07-09T03:13:36;12.40;;;5.77;;
62693;SDS011;48759;52.544;13.418;2022-07-09T03:16:03;9.83;;;5.43;;
62693;SDS011;48759;52.544;13.418;2022-07-09T03:18:31;17.63;;;5.67;;
62693;SDS011;48759;52.544;13.418;2022-07-09T03:20:59;11.63;;;5.90;;
62693;SDS011;48759;52.544;13.418;2022-07-09T03:23:26;13.53;;;5.77;;
62693;SDS011;48759;52.544;13.418;2022-07-09T03:25:52;12.67;;;5.20;;
62693;SDS011;48759;52.544;13.418;2022-07-09T03:28:19;10.70;;;5.47;;
62693;SDS011;48759;52.544;13.418;2022-07-09T03:30:45;8.57;;;5.53;;
62693;SDS011;48759;52.544;13.418;2022-07-09T03:33:12;10.67;;;5.73;;
62693;SDS011;48759;52.544;13.418;2022-07-09T03:35:38;8.90;;;5.50;;
62693;SDS011;48759;52.544;13.418;2022-07-09T03:38:06;14.43;;;5.30;;
62693;SDS011;48759;52.544;13.418;2022-07-09T03:40:33;17.30;;;4.43;;
62693;SDS011;48759;52.544;13.418;2022-07-09T03:42:59;10.47;;;4.70;;
62693;SDS011;48759;52.544;13.418;2022-07-09T03:45:26;4.93;;;4.37;;
62693;SDS011;48759;52.544;13.418;2022-07-09T03:47:53;9.50;;;4.83;;
62693;SDS011;48759;52.544;13.418;2022-07-09T03:50:19;9.00;;;4.53;;
62693;SDS011;48759;52.544;13.418;2022-07-09T03:52:46;11.60;;;5.20;;
62693;SDS011;48759;52.544;13.418;2022-07-09T03:55:14;19.73;;;5.00;;
62693;SDS011;48759;52.544;13.418;2022-07-09T03:57:40;10.53;;;4.57;;
62693;SDS011;48759;52.544;13.418;2022-07-09T04:00:07;9.13;;;4.70;;
62693;SDS011;48759;52.544;13.418;2022-07-09T04:02:34;11.33;;;4.83;;
62693;SDS011;48759;52.544;13.418;2022-07-09T04:05:01;8.90;;;4.33;;
62693;SDS011;48759;52.544;13.418;2022-07-09T04:07:27;10.80;;;4.00;;
62693;SDS011;48759;52.544;13.418;2022-07-09T04:09:54;9.13;;;4.33;;
62693;SDS011;48759;52.544;13.418;2022-07-09T04:12:22;5.80;;;4.30;;
62693;SDS011;48759;52.544;13.418;2022-07-09T04:14:48;9.13;;;4.37;;
62693;SDS011;48759;52.544;13.418;2022-07-09T04:17:15;6.63;;;4.00;;
62693;SDS011;48759;52.544;13.418;2022-07-09T04:19:41;9.73;;;3.97;;
62693;SDS011;48759;52.544;13.418;2022-07-09T04:22:08;9.63;;;4.83;;
62693;SDS011;48759;52.544;13.418;2022-07-09T04:24:34;15.63;;;4.50;;
62693;SDS011;48759;52.544;13.418;2022-07-09T04:27:03;7.87;;;4.40;;
62693;SDS011;48759;52.544;13.418;2022-07-09T04:29:31;11.43;;;4.27;;
62693;SDS011;48759;52.544;13.418;2022-07-09T04:31:58;8.80;;;4.50;;
62693;SDS011;48759;52.544;13.418;2022-07-09T04:34:24;9.13;;;4.50;;
62693;SDS011;48759;52.544;13.418;2022-07-09T04:36:51;9.47;;;3.93;;
62693;SDS011;48759;52.544;13.418;2022-07-09T04:39:17;5.93;;;4.30;;
62693;SDS011;48759;52.544;13.418;2022-07-09T04:41:44;7.60;;;4.70;;
62693;SDS011;48759;52.544;13.418;2022-07-09T04:44:10;9.13;;;4.87;;
62693;SDS011;48759;52.544;13.418;2022-07-09T04:46:42;6.40;;;4.10;;
62693;SDS011;48759;52.544;13.418;2022-07-09T04:49:09;9.63;;;5.30;;
62693;SDS011;48759;52.544;13.418;2022-07-09T04:51:36;10.00;;;4.67;;
62693;SDS011;48759;52.544;13.418;2022-07-09T04:54:03;14.27;;;4.83;;
62693;SDS011;48759;52.544;13.418;2022-07-09T04:56:29;11.37;;;4.87;;
62693;SDS011;48759;52.544;13.418;2022-07-09T04:58:56;15.47;;;4.40;;
62693;SDS011;48759;52.544;13.418;2022-07-09T05:01:25;6.30;;;4.33;;
62693;SDS011;48759;52.544;13.418;2022-07-09T05:03:55;8.90;;;4.70;;
62693;SDS011;48759;52.544;13.418;2022-07-09T05:06:22;10.40;;;4.27;;
62693;SDS011;48759;52.544;13.418;2022-07-09T05:08:49;7.37;;;4.30;;
62693;SDS011;48759;52.544;13.418;2022-07-09T05:11:15;11.57;;;4.50;;
62693;SDS011;48759;52.544;13.418;2022-07-09T05:13:43;5.63;;;3.80;;
62693;SDS011;48759;52.544;13.418;2022-07-09T05:16:10;6.10;;;3.90;;
62693;SDS011;48759;52.544;13.418;2022-07-09T05:18:37;6.47;;;3.97;;
62693;SDS011;48759;52.544;13.418;2022-07-09T05:21:05;13.57;;;4.90;;
62693;SDS011;48759;52.544;13.418;2022-07-09T05:23:32;11.37;;;4.80;;
62693;SDS011;48759;52.544;13.418;2022-07-09T05:25:58;9.07;;;4.10;;
62693;SDS011;48759;52.544;13.418;2022-07-09T05:28:25;13.83;;;4.73;;
62693;SDS011;48759;52.544;13.418;2022-07-09T05:30:52;9.53;;;5.07;;
62693;SDS011;48759;52.544;13.418;2022-07-09T05:33:18;6.43;;;4.40;;
62693;SDS011;48759;52.544;13.418;2022-07-09T05:35:45;7.47;;;4.30;;
62693;SDS011;48759;52.544;13.418;2022-07-09T05:38:13;5.97;;;4.27;;
62693;SDS011;48759;52.544;13.418;2022-07-09T05:40:40;8.57;;;4.40;;
62693;SDS011;48759;52.544;13.418;2022-07-09T05:43:06;5.00;;;4.33;;
62693;SDS011;48759;52.544;13.418;2022-07-09T05:45:33;7.73;;;4.23;;
62693;SDS011;48759;52.544;13.418;2022-07-09T05:47:59;6.47;;;4.50;;
62693;SDS011;48759;52.544;13.418;2022-07-09T05:50:26;10.50;;;4.03;;
62693;SDS011;48759;52.544;13.418;2022-07-09T05:52:52;11.87;;;5.40;;
62693;SDS011;48759;52.544;13.418;2022-07-09T05:55:20;8.37;;;3.90;;
62693;SDS011;48759;52.544;13.418;2022-07-09T05:57:47;7.57;;;3.77;;
62693;SDS011;48759;52.544;13.418;2022-07-09T06:00:13;9.33;;;3.83;;
62693;SDS011;48759;52.544;13.418;2022-07-09T06:02:40;7.73;;;3.90;;
62693;SDS011;48759;52.544;13.418;2022-07-09T06:05:07;7.43;;;4.10;;
62693;SDS011;48759;52.544;13.418;2022-07-09T06:07:34;7.60;;;3.73;;
62693;SDS011;48759;52.544;13.418;2022-07-09T06:10:01;8.53;;;4.30;;
62693;SDS011;48759;52.544;13.418;2022-07-09T06:12:28;12.13;;;4.27;;
62693;SDS011;48759;52.544;13.418;2022-07-09T06:14:55;7.13;;;4.30;;
62693;SDS011;48759;52.544;13.418;2022-07-09T06:17:21;12.43;;;4.20;;
62693;SDS011;48759;52.544;13.418;2022-07-09T06:19:48;8.67;;;4.00;;
62693;SDS011;48759;52.544;13.418;2022-07-09T06:22:15;10.80;;;4.20;;
62693;SDS011;48759;52.544;13.418;2022-07-09T06:24:41;11.70;;;4.03;;
62693;SDS011;48759;52.544;13.418;2022-07-09T06:27:08;8.20;;;4.60;;
62693;SDS011;48759;52.544;13.418;2022-07-09T06:29:37;7.83;;;4.07;;
62693;SDS011;48759;52.544;13.418;2022-07-09T06:32:04;12.80;;;4.53;;
62693;SDS011;48759;52.544;13.418;2022-07-09T06:34:31;5.40;;;4.50;;
62693;SDS011;48759;52.544;13.418;2022-07-09T06:36:58;4.43;;;3.97;;
62693;SDS011;48759;52.544;13.418;2022-07-09T06:39:24;13.73;;;4.57;;
62693;SDS011;48759;52.544;13.418;2022-07-09T06:42:08;10.20;;;4.30;;
62693;SDS011;48759;52.544;13.418;2022-07-09T06:44:36;11.97;;;4.20;;
62693;SDS011;48759;52.544;13.418;2022-07-09T06:47:03;11.17;;;4.63;;
62693;SDS011;48759;52.544;13.418;2022-07-09T06:49:31;10.53;;;5.23;;
62693;SDS011;48759;52.544;13.418;2022-07-09T06:51:58;7.30;;;4.37;;
62693;SDS011;48759;52.544;13.418;2022-07-09T06:54:25;7.43;;;4.23;;
62693;SDS011;48759;52.544;13.418;2022-07-09T06:56:52;8.50;;;3.90;;
62693;SDS011;48759;52.544;13.418;2022-07-09T06:59:18;9.03;;;3.80;;
62693;SDS011;48759;52.544;13.418;2022-07-09T07:01:48;6.57;;;4.03;;
62693;SDS011;48759;52.544;13.418;2022-07-09T07:04:15;6.87;;;3.80;;
62693;SDS011;48759;52.544;13.418;2022-07-09T07:06:42;7.73;;;3.67;;
62693;SDS011;48759;52.544;13.418;2022-07-09T07:09:09;8.67;;;3.90;;
62693;SDS011;48759;52.544;13.418;2022-07-09T07:11:35;7.63;;;4.70;;
62693;SDS011;48759;52.544;13.418;2022-07-09T07:14:02;10.93;;;4.30;;
62693;SDS011;48759;52.544;13.418;2022-07-09T07:16:29;6.70;;;3.50;;
62693;SDS011;48759;52.544;13.418;2022-07-09T07:18:57;6.30;;;3.60;;
62693;SDS011;48759;52.544;13.418;2022-07-09T07:21:24;17.00;;;4.87;;
62693;SDS011;48759;52.544;13.418;2022-07-09T07:23:51;15.33;;;4.40;;
62693;SDS011;48759;52.544;13.418;2022-07-09T07:26:17;8.93;;;3.47;;
62693;SDS011;48759;52.544;13.418;2022-07-09T07:28:46;10.13;;;3.50;;
62693;SDS011;48759;52.544;13.418;2022-07-09T07:31:14;4.17;;;3.10;;
62693;SDS011;48759;52.544;13.418;2022-07-09T07:33:40;5.33;;;3.30;;
62693;SDS011;48759;52.544;13.418;2022-07-09T07:36:08;6.27;;;3.80;;
62693;SDS011;48759;52.544;13.418;2022-07-09T07:38:35;4.70;;;3.53;;
62693;SDS011;48759;52.544;13.418;2022-07-09T07:41:01;7.00;;;4.10;;
62693;SDS011;48759;52.544;13.418;2022-07-09T07:43:28;6.30;;;3.93;;
62693;SDS011;48759;52.544;13.418;2022-07-09T07:45:54;5.93;;;3.67;;
62693;SDS011;48759;52.544;13.418;2022-07-09T07:48:21;10.20;;;4.03;;
62693;SDS011;48759;52.544;13.418;2022-07-09T07:50:47;8.00;;;2.97;;
62693;SDS011;48759;52.544;13.418;2022-07-09T07:53:15;5.90;;;4.00;;
62693;SDS011;48759;52.544;13.418;2022-07-09T07:55:42;6.83;;;4.13;;
62693;SDS011;48759;52.544;13.418;2022-07-09T07:58:08;6.70;;;3.63;;
62693;SDS011;48759;52.544;13.418;2022-07-09T08:00:35;5.67;;;3.30;;
62693;SDS011;48759;52.544;13.418;2022-07-09T08:03:02;6.27;;;3.53;;
62693;SDS011;48759;52.544;13.418;2022-07-09T08:05:29;10.00;;;3.47;;
62693;SDS011;48759;52.544;13.418;2022-07-09T08:07:55;5.20;;;3.23;;
62693;SDS011;48759;52.544;13.418;2022-07-09T08:10:23;8.67;;;4.30;;
62693;SDS011;48759;52.544;13.418;2022-07-09T08:12:51;8.33;;;4.00;;
62693;SDS011;48759;52.544;13.418;2022-07-09T08:15:18;10.53;;;4.40;;
62693;SDS011;48759;52.544;13.418;2022-07-09T08:17:44;9.30;;;4.40;;
62693;SDS011;48759;52.544;13.418;2022-07-09T08:20:11;8.40;;;4.13;;
62693;SDS011;48759;52.544;13.418;2022-07-09T08:22:37;5.23;;;3.77;;
62693;SDS011;48759;52.544;13.418;2022-07-09T08:25:04;6.43;;;3.33;;
62693;SDS011;48759;52.544;13.418;2022-07-09T08:27:33;10.00;;;4.30;;
62693;SDS011;48759;52.544;13.418;2022-07-09T08:29:59;9.80;;;4.30;;
62693;SDS011;48759;52.544;13.418;2022-07-09T08:32:25;9.07;;;3.50;;
62693;SDS011;48759;52.544;13.418;2022-07-09T08:34:52;4.97;;;3.30;;
62693;SDS011;48759;52.544;13.418;2022-07-09T08:37:19;4.13;;;3.43;;
62693;SDS011;48759;52.544;13.418;2022-07-09T08:39:46;7.40;;;3.70;;
62693;SDS011;48759;52.544;13.418;2022-07-09T08:42:12;6.47;;;3.60;;
62693;SDS011;48759;52.544;13.418;2022-07-09T08:44:40;7.10;;;3.77;;
62693;SDS011;48759;52.544;13.418;2022-07-09T08:47:12;4.70;;;3.70;;
62693;SDS011;48759;52.544;13.418;2022-07-09T08:49:41;10.67;;;3.63;;
62693;SDS011;48759;52.544;13.418;2022-07-09T08:52:08;6.07;;;3.50;;
62693;SDS011;48759;52.544;13.418;2022-07-09T08:54:36;5.50;;;3.57;;
62693;SDS011;48759;52.544;13.418;2022-07-09T08:57:03;9.63;;;3.83;;
62693;SDS011;48759;52.544;13.418;2022-07-09T08:59:30;3.70;;;3.30;;
62693;SDS011;48759;52.544;13.418;2022-07-09T09:01:58;8.67;;;3.80;;
62693;SDS011;48759;52.544;13.418;2022-07-09T09:04:30;7.20;;;4.00;;
62693;SDS011;48759;52.544;13.418;2022-07-09T09:06:59;7.30;;;3.40;;
62693;SDS011;48759;52.544;13.418;2022-07-09T09:09:26;11.33;;;4.70;;
62693;SDS011;48759;52.544;13.418;2022-07-09T09:11:52;7.80;;;3.40;;
62693;SDS011;48759;52.544;13.418;2022-07-09T09:14:22;5.63;;;3.60;;
62693;SDS011;48759;52.544;13.418;2022-07-09T09:16:50;8.70;;;3.80;;
62693;SDS011;48759;52.544;13.418;2022-07-09T09:19:18;7.17;;;3.50;;
62693;SDS011;48759;52.544;13.418;2022-07-09T09:21:49;11.40;;;4.10;;
62693;SDS011;48759;52.544;13.418;2022-07-09T09:24:21;8.80;;;3.97;;
62693;SDS011;48759;52.544;13.418;2022-07-09T09:26:48;5.00;;;3.83;;
62693;SDS011;48759;52.544;13.418;2022-07-09T09:29:15;8.50;;;4.00;;
62693;SDS011;48759;52.544;13.418;2022-07-09T09:31:44;5.23;;;4.03;;
62693;SDS011;48759;52.544;13.418;2022-07-09T09:34:11;9.27;;;3.90;;
62693;SDS011;48759;52.544;13.418;2022-07-09T09:36:40;7.83;;;5.10;;
62693;SDS011;48759;52.544;13.418;2022-07-09T09:39:11;6.03;;;4.73;;
62693;SDS011;48759;52.544;13.418;2022-07-09T09:41:40;12.10;;;6.20;;
62693;SDS011;48759;52.544;13.418;2022-07-09T09:44:08;9.27;;;5.57;;
62693;SDS011;48759;52.544;13.418;2022-07-09T09:46:36;11.13;;;5.87;;
62693;SDS011;48759;52.544;13.418;2022-07-09T09:49:04;12.87;;;5.50;;
62693;SDS011;48759;52.544;13.418;2022-07-09T09:51:34;6.40;;;5.10;;
62693;SDS011;48759;52.544;13.418;2022-07-09T09:54:03;6.53;;;5.00;;
62693;SDS011;48759;52.544;13.418;2022-07-09T09:56:30;10.07;;;4.50;;
62693;SDS011;48759;52.544;13.418;2022-07-09T09:58:58;6.47;;;4.67;;
62693;SDS011;48759;52.544;13.418;2022-07-09T10:01:25;5.17;;;4.37;;
62693;SDS011;48759;52.544;13.418;2022-07-09T10:03:53;5.77;;;4.70;;
62693;SDS011;48759;52.544;13.418;2022-07-09T10:06:20;7.60;;;4.40;;
62693;SDS011;48759;52.544;13.418;2022-07-09T10:08:46;12.00;;;4.87;;
62693;SDS011;48759;52.544;13.418;2022-07-09T10:11:14;8.97;;;4.80;;
62693;SDS011;48759;52.544;13.418;2022-07-09T10:13:49;8.20;;;4.60;;
62693;SDS011;48759;52.544;13.418;2022-07-09T10:16:16;7.30;;;4.73;;
62693;SDS011;48759;52.544;13.418;2022-07-09T10:18:49;12.80;;;5.67;;
62693;SDS011;48759;52.544;13.418;2022-07-09T10:21:16;7.77;;;5.10;;
62693;SDS011;48759;52.544;13.418;2022-07-09T10:23:48;9.03;;;5.10;;
62693;SDS011;48759;52.544;13.418;2022-07-09T10:26:17;9.73;;;4.83;;
62693;SDS011;48759;52.544;13.418;2022-07-09T10:28:43;5.00;;;4.33;;
62693;SDS011;48759;52.544;13.418;2022-07-09T10:31:10;6.97;;;5.40;;
62693;SDS011;48759;52.544;13.418;2022-07-09T10:33:41;7.93;;;4.90;;
62693;SDS011;48759;52.544;13.418;2022-07-09T10:36:14;11.70;;;5.10;;
62693;SDS011;48759;52.544;13.418;2022-07-09T10:38:51;6.17;;;4.23;;
62693;SDS011;48759;52.544;13.418;2022-07-09T10:41:22;7.70;;;4.47;;
62693;SDS011;48759;52.544;13.418;2022-07-09T10:43:50;7.27;;;4.70;;
62693;SDS011;48759;52.544;13.418;2022-07-09T10:46:18;4.97;;;4.30;;
62693;SDS011;48759;52.544;13.418;2022-07-09T10:48:45;8.03;;;4.40;;
62693;SDS011;48759;52.544;13.418;2022-07-09T10:51:16;8.70;;;4.17;;
62693;SDS011;48759;52.544;13.418;2022-07-09T10:53:44;8.33;;;4.30;;
62693;SDS011;48759;52.544;13.418;2022-07-09T10:56:11;7.07;;;4.87;;
62693;SDS011;48759;52.544;13.418;2022-07-09T10:58:39;10.13;;;4.37;;
62693;SDS011;48759;52.544;13.418;2022-07-09T11:01:12;12.23;;;4.53;;
62693;SDS011;48759;52.544;13.418;2022-07-09T11:03:47;9.87;;;4.10;;
62693;SDS011;48759;52.544;13.418;2022-07-09T11:06:15;9.13;;;3.57;;
62693;SDS011;48759;52.544;13.418;2022-07-09T11:08:42;5.23;;;3.60;;
62693;SDS011;48759;52.544;13.418;2022-07-09T11:11:09;5.33;;;3.07;;
62693;SDS011;48759;52.544;13.418;2022-07-09T11:13:35;6.17;;;3.73;;
62693;SDS011;48759;52.544;13.418;2022-07-09T11:16:03;7.10;;;4.23;;
62693;SDS011;48759;52.544;13.418;2022-07-09T11:18:30;5.03;;;3.30;;
62693;SDS011;48759;52.544;13.418;2022-07-09T11:20:57;10.50;;;3.10;;
62693;SDS011;48759;52.544;13.418;2022-07-09T11:23:23;5.07;;;3.10;;
62693;SDS011;48759;52.544;13.418;2022-07-09T11:25:50;6.90;;;3.80;;
62693;SDS011;48759;52.544;13.418;2022-07-09T11:28:20;7.43;;;2.60;;
62693;SDS011;48759;52.544;13.418;2022-07-09T11:30:57;3.33;;;2.70;;
62693;SDS011;48759;52.544;13.418;2022-07-09T11:33:25;7.13;;;2.70;;
62693;SDS011;48759;52.544;13.418;2022-07-09T11:35:52;4.47;;;3.00;;
62693;SDS011;48759;52.544;13.418;2022-07-09T11:38:19;6.00;;;3.33;;
62693;SDS011;48759;52.544;13.418;2022-07-09T11:40:45;12.83;;;3.10;;
62693;SDS011;48759;52.544;13.418;2022-07-09T11:43:12;3.87;;;2.97;;
62693;SDS011;48759;52.544;13.418;2022-07-09T11:45:39;7.13;;;2.53;;
62693;SDS011;48759;52.544;13.418;2022-07-09T11:48:07;3.50;;;2.87;;
62693;SDS011;48759;52.544;13.418;2022-07-09T11:50:42;4.53;;;2.43;;
62693;SDS011;48759;52.544;13.418;2022-07-09T11:53:18;4.87;;;3.07;;
62693;SDS011;48759;52.544;13.418;2022-07-09T11:55:49;6.00;;;3.10;;
62693;SDS011;48759;52.544;13.418;2022-07-09T11:58:23;4.30;;;3.40;;
62693;SDS011;48759;52.544;13.418;2022-07-09T12:00:50;4.53;;;2.83;;
62693;SDS011;48759;52.544;13.418;2022-07-09T12:03:25;3.27;;;2.53;;
62693;SDS011;48759;52.544;13.418;2022-07-09T12:05:58;4.90;;;2.43;;
62693;SDS011;48759;52.544;13.418;2022-07-09T12:08:27;7.90;;;2.50;;
62693;SDS011;48759;52.544;13.418;2022-07-09T12:10:55;3.50;;;2.63;;
62693;SDS011;48759;52.544;13.418;2022-07-09T12:13:22;3.97;;;2.80;;
62693;SDS011;48759;52.544;13.418;2022-07-09T12:15:49;2.93;;;2.53;;
62693;SDS011;48759;52.544;13.418;2022-07-09T12:18:15;3.50;;;2.80;;
62693;SDS011;48759;52.544;13.418;2022-07-09T12:20:42;5.18;;;2.38;;
62693;SDS011;48759;52.544;13.418;2022-07-09T12:23:10;4.23;;;2.80;;
62693;SDS011;48759;52.544;13.418;2022-07-09T12:25:37;6.43;;;3.50;;
62693;SDS011;48759;52.544;13.418;2022-07-09T12:28:04;4.43;;;3.10;;
62693;SDS011;48759;52.544;13.418;2022-07-09T12:30:30;4.87;;;2.80;;
62693;SDS011;48759;52.544;13.418;2022-07-09T12:32:57;6.87;;;3.40;;
62693;SDS011;48759;52.544;13.418;2022-07-09T12:35:24;3.80;;;3.20;;
62693;SDS011;48759;52.544;13.418;2022-07-09T12:37:52;4.13;;;2.90;;
62693;SDS011;48759;52.544;13.418;2022-07-09T12:40:22;4.77;;;2.80;;
62693;SDS011;48759;52.544;13.418;2022-07-09T12:42:49;4.70;;;3.47;;
62693;SDS011;48759;52.544;13.418;2022-07-09T12:45:15;7.90;;;3.53;;
62693;SDS011;48759;52.544;13.418;2022-07-09T12:47:42;5.77;;;2.90;;
62693;SDS011;48759;52.544;13.418;2022-07-09T12:50:09;3.47;;;3.10;;
62693;SDS011;48759;52.544;13.418;2022-07-09T12:52:36;4.10;;;3.20;;
62693;SDS011;48759;52.544;13.418;2022-07-09T12:55:03;6.47;;;3.50;;
62693;SDS011;48759;52.544;13.418;2022-07-09T12:57:35;3.83;;;3.33;;
62693;SDS011;48759;52.544;13.418;2022-07-09T13:00:02;7.00;;;2.93;;
62693;SDS011;48759;52.544;13.418;2022-07-09T13:02:29;5.27;;;3.50;;
62693;SDS011;48759;52.544;13.418;2022-07-09T13:04:56;4.13;;;3.20;;
62693;SDS011;48759;52.544;13.418;2022-07-09T13:07:23;7.50;;;4.50;;
62693;SDS011;48759;52.544;13.418;2022-07-09T13:09:49;9.30;;;4.00;;
62693;SDS011;48759;52.544;13.418;2022-07-09T13:12:17;8.57;;;4.40;;
62693;SDS011;48759;52.544;13.418;2022-07-09T13:14:45;4.63;;;4.13;;
62693;SDS011;48759;52.544;13.418;2022-07-09T13:17:12;9.67;;;4.67;;
62693;SDS011;48759;52.544;13.418;2022-07-09T13:19:39;5.20;;;4.70;;
62693;SDS011;48759;52.544;13.418;2022-07-09T13:22:06;5.87;;;5.30;;
62693;SDS011;48759;52.544;13.418;2022-07-09T13:24:34;5.73;;;4.50;;
62693;SDS011;48759;52.544;13.418;2022-07-09T13:27:00;6.93;;;4.37;;
62693;SDS011;48759;52.544;13.418;2022-07-09T13:29:33;5.50;;;4.07;;
62693;SDS011;48759;52.544;13.418;2022-07-09T13:32:01;4.50;;;4.10;;
62693;SDS011;48759;52.544;13.418;2022-07-09T13:34:27;4.20;;;3.70;;
62693;SDS011;48759;52.544;13.418;2022-07-09T13:36:54;2.40;;;2.20;;
62693;SDS011;48759;52.544;13.418;2022-07-09T13:39:20;5.00;;;3.00;;
62693;SDS011;48759;52.544;13.418;2022-07-09T13:41:48;2.40;;;2.20;;
62693;SDS011;48759;52.544;13.418;2022-07-09T13:44:14;5.10;;;2.83;;
62693;SDS011;48759;52.544;13.418;2022-07-09T13:46:41;2.17;;;2.03;;
62693;SDS011;48759;52.544;13.418;2022-07-09T13:49:09;5.80;;;2.83;;
62693;SDS011;48759;52.544;13.418;2022-07-09T13:51:36;3.40;;;2.30;;
62693;SDS011;48759;52.544;13.418;2022-07-09T13:54:03;2.37;;;2.17;;
62693;SDS011;48759;52.544;13.418;2022-07-09T13:56:29;2.57;;;2.20;;
62693;SDS011;48759;52.544;13.418;2022-07-09T13:58:56;3.03;;;2.83;;
62693;SDS011;48759;52.544;13.418;2022-07-09T14:01:23;2.60;;;2.40;;
62693;SDS011;48759;52.544;13.418;2022-07-09T14:03:49;2.40;;;2.20;;
62693;SDS011;48759;52.544;13.418;2022-07-09T14:06:17;3.00;;;2.60;;
62693;SDS011;48759;52.544;13.418;2022-07-09T14:08:44;2.70;;;2.50;;
62693;SDS011;48759;52.544;13.418;2022-07-09T14:11:10;2.73;;;2.27;;
62693;SDS011;48759;52.544;13.418;2022-07-09T14:13:37;3.93;;;2.40;;
62693;SDS011;48759;52.544;13.418;2022-07-09T14:16:04;5.83;;;2.43;;
62693;SDS011;48759;52.544;13.418;2022-07-09T14:18:31;3.90;;;2.20;;
62693;SDS011;48759;52.544;13.418;2022-07-09T14:20:58;3.87;;;2.50;;
62693;SDS011;48759;52.544;13.418;2022-07-09T14:23:27;3.53;;;2.43;;
62693;SDS011;48759;52.544;13.418;2022-07-09T14:25:54;6.93;;;3.40;;
62693;SDS011;48759;52.544;13.418;2022-07-09T14:28:21;2.73;;;2.53;;
62693;SDS011;48759;52.544;13.418;2022-07-09T14:30:48;3.70;;;3.37;;
62693;SDS011;48759;52.544;13.418;2022-07-09T14:33:14;2.70;;;2.50;;